createdAt,value
2018-06-22T00:00:51.857Z,0.00
2018-06-22T00:01:51.868Z,0.00
2018-06-22T00:02:51.835Z,0.00
2018-06-22T00:03:51.772Z,0.00
2018-06-22T00:04:51.729Z,0.00
2018-06-22T00:05:51.764Z,0.00
2018-06-22T00:06:51.670Z,0.00
2018-06-22T00:07:51.606Z,0.00
2018-06-22T00:08:51.607Z,0.00
2018-06-22T00:09:51.536Z,0.00
2018-06-22T00:10:51.548Z,0.00
2018-06-22T00:11:51.477Z,0.00
2018-06-22T00:12:51.468Z,0.00
2018-06-22T00:13:51.441Z,0.00
2018-06-22T00:14:51.375Z,0.00
2018-06-22T00:15:51.410Z,0.00
2018-06-22T00:16:51.284Z,0.00
2018-06-22T00:17:51.267Z,0.00
2018-06-22T00:18:51.242Z,0.00
2018-06-22T00:19:51.214Z,0.00
2018-06-22T00:20:51.152Z,0.00
2018-06-22T00:21:51.143Z,0.00
2018-06-22T00:22:51.081Z,0.00
2018-06-22T00:23:51.042Z,0.00
2018-06-22T00:24:51.029Z,0.00
2018-06-22T00:25:50.974Z,0.00
2018-06-22T00:26:50.962Z,0.00
2018-06-22T00:27:50.925Z,0.00
2018-06-22T00:28:50.862Z,0.00
2018-06-22T00:29:50.826Z,0.00
2018-06-22T00:30:50.788Z,0.00
2018-06-22T00:31:50.757Z,0.00
2018-06-22T00:32:50.729Z,0.00
2018-06-22T00:33:50.693Z,0.00
2018-06-22T00:34:50.648Z,0.00
2018-06-22T00:35:50.609Z,0.00
2018-06-22T00:36:50.609Z,0.00
2018-06-22T00:37:50.539Z,0.00
2018-06-22T00:38:50.547Z,0.00
2018-06-22T00:39:50.505Z,0.00
2018-06-22T00:40:50.441Z,0.00
2018-06-22T00:41:50.402Z,0.00
2018-06-22T00:42:50.381Z,0.00
2018-06-22T00:43:50.340Z,0.00
2018-06-22T00:44:50.287Z,0.00
2018-06-22T00:45:50.284Z,0.00
2018-06-22T00:46:50.235Z,0.00
2018-06-22T00:47:50.192Z,0.00
2018-06-22T00:48:50.146Z,0.00
2018-06-22T00:49:50.135Z,0.00
2018-06-22T00:50:50.090Z,0.00
2018-06-22T00:51:50.044Z,0.00
2018-06-22T00:52:50.028Z,0.00
2018-06-22T00:53:49.998Z,0.00
2018-06-22T00:54:49.953Z,0.00
2018-06-22T00:55:49.952Z,0.00
2018-06-22T00:56:49.866Z,0.00
2018-06-22T00:57:49.832Z,0.00
2018-06-22T00:58:49.797Z,0.00
2018-06-22T00:59:49.760Z,0.00
2018-06-22T01:00:49.727Z,0.00
2018-06-22T01:01:49.705Z,0.00
2018-06-22T01:02:49.659Z,0.00
2018-06-22T01:03:49.626Z,0.00
2018-06-22T01:04:49.585Z,0.00
2018-06-22T01:05:49.550Z,0.00
2018-06-22T01:06:49.522Z,0.00
2018-06-22T01:07:49.476Z,0.00
2018-06-22T01:08:49.439Z,0.00
2018-06-22T01:09:49.407Z,0.00
2018-06-22T01:10:49.375Z,0.00
2018-06-22T01:11:49.362Z,0.00
2018-06-22T01:12:49.316Z,0.00
2018-06-22T01:13:49.266Z,0.00
2018-06-22T01:14:49.231Z,0.00
2018-06-22T01:15:49.196Z,0.00
2018-06-22T01:16:49.160Z,0.00
2018-06-22T01:17:49.125Z,0.00
2018-06-22T01:18:49.091Z,0.00
2018-06-22T01:19:49.052Z,0.00
2018-06-22T01:20:49.020Z,0.00
2018-06-22T01:21:48.983Z,0.00
2018-06-22T01:22:48.949Z,0.00
2018-06-22T01:23:48.923Z,0.00
2018-06-22T01:24:48.912Z,0.00
2018-06-22T01:25:48.842Z,0.00
2018-06-22T01:26:48.805Z,0.00
2018-06-22T01:27:48.772Z,0.00
2018-06-22T01:28:48.736Z,0.00
2018-06-22T01:29:48.702Z,0.00
2018-06-22T01:30:48.669Z,0.00
2018-06-22T01:31:48.652Z,0.00
2018-06-22T01:32:48.594Z,0.00
2018-06-22T01:33:48.557Z,0.00
2018-06-22T01:34:48.522Z,0.00
2018-06-22T01:35:48.507Z,0.00
2018-06-22T01:36:48.453Z,0.00
2018-06-22T01:37:48.416Z,0.00
2018-06-22T01:38:48.381Z,0.00
2018-06-22T01:39:48.350Z,0.00
2018-06-22T01:40:48.328Z,0.00
2018-06-22T01:41:48.275Z,0.00
2018-06-22T01:42:48.243Z,0.00
2018-06-22T01:43:48.204Z,0.00
2018-06-22T01:44:48.167Z,0.00
2018-06-22T01:45:48.133Z,0.00
2018-06-22T01:46:48.097Z,0.00
2018-06-22T01:47:48.061Z,0.00
2018-06-22T01:48:48.025Z,0.00
2018-06-22T01:49:47.986Z,0.00
2018-06-22T01:50:47.972Z,0.00
2018-06-22T01:51:47.918Z,0.00
2018-06-22T01:52:47.883Z,0.00
2018-06-22T01:53:47.849Z,0.00
2018-06-22T01:54:47.840Z,0.00
2018-06-22T01:55:47.777Z,0.00
2018-06-22T01:56:47.741Z,0.00
2018-06-22T01:57:47.707Z,0.00
2018-06-22T01:58:47.671Z,0.00
2018-06-22T01:59:47.633Z,0.00
2018-06-22T02:00:47.599Z,0.00
2018-06-22T02:01:47.566Z,0.00
2018-06-22T02:02:47.528Z,0.00
2018-06-22T02:03:47.493Z,0.00
2018-06-22T02:04:47.457Z,0.00
2018-06-22T02:05:47.478Z,0.00
2018-06-22T02:06:47.387Z,0.00
2018-06-22T02:07:47.354Z,0.00
2018-06-22T02:08:47.313Z,0.00
2018-06-22T02:09:47.279Z,0.00
2018-06-22T02:10:47.247Z,0.00
2018-06-22T02:11:47.210Z,0.00
2018-06-22T02:12:47.176Z,0.00
2018-06-22T02:13:47.169Z,0.00
2018-06-22T02:14:47.101Z,0.00
2018-06-22T02:15:47.069Z,0.00
2018-06-22T02:16:47.042Z,0.00
2018-06-22T02:17:47.000Z,0.00
2018-06-22T02:18:46.955Z,0.00
2018-06-22T02:19:46.925Z,0.00
2018-06-22T02:20:46.891Z,0.00
2018-06-22T02:21:46.878Z,0.00
2018-06-22T02:22:46.822Z,0.00
2018-06-22T02:23:46.783Z,0.00
2018-06-22T02:24:46.752Z,0.00
2018-06-22T02:25:46.719Z,0.00
2018-06-22T02:26:46.707Z,0.00
2018-06-22T02:27:46.643Z,0.00
2018-06-22T02:28:46.616Z,0.00
2018-06-22T02:29:46.571Z,0.00
2018-06-22T02:30:46.538Z,0.00
2018-06-22T02:31:46.501Z,0.00
2018-06-22T02:32:46.462Z,0.00
2018-06-22T02:33:46.443Z,0.00
2018-06-22T02:34:46.409Z,0.00
2018-06-22T02:35:46.362Z,0.00
2018-06-22T02:36:46.323Z,0.00
2018-06-22T02:37:46.290Z,0.00
2018-06-22T02:38:46.251Z,0.00
2018-06-22T02:39:46.214Z,0.00
2018-06-22T02:40:46.179Z,0.00
2018-06-22T02:41:46.148Z,0.00
2018-06-22T02:42:46.111Z,0.00
2018-06-22T02:43:46.073Z,0.00
2018-06-22T02:44:46.040Z,4.00
2018-06-22T02:45:46.035Z,4.00
2018-06-22T02:46:45.968Z,0.00
2018-06-22T02:47:45.933Z,0.00
2018-06-22T02:48:45.898Z,4.00
2018-06-22T02:49:45.863Z,4.00
2018-06-22T02:50:45.826Z,0.00
2018-06-22T02:51:45.789Z,4.00
2018-06-22T02:52:45.764Z,4.00
2018-06-22T02:53:45.719Z,4.00
2018-06-22T02:54:45.684Z,8.00
2018-06-22T02:55:45.646Z,4.00
2018-06-22T02:56:45.611Z,8.00
2018-06-22T02:57:45.573Z,8.00
2018-06-22T02:58:45.541Z,8.00
2018-06-22T02:59:45.512Z,12.00
2018-06-22T03:00:45.469Z,12.00
2018-06-22T03:01:45.433Z,12.00
2018-06-22T03:02:45.399Z,16.00
2018-06-22T03:03:45.363Z,16.00
2018-06-22T03:04:45.361Z,20.00
2018-06-22T03:05:45.290Z,24.00
2018-06-22T03:06:45.253Z,20.00
2018-06-22T03:07:45.219Z,28.00
2018-06-22T03:08:45.182Z,28.00
2018-06-22T03:09:45.148Z,32.00
2018-06-22T03:10:45.117Z,36.00
2018-06-22T03:11:45.072Z,36.00
2018-06-22T03:12:45.041Z,44.00
2018-06-22T03:13:45.006Z,48.00
2018-06-22T03:14:44.964Z,56.00
2018-06-22T03:15:44.932Z,56.00
2018-06-22T03:16:44.900Z,60.00
2018-06-22T03:17:44.864Z,68.00
2018-06-22T03:18:44.826Z,72.00
2018-06-22T03:19:44.805Z,80.00
2018-06-22T03:20:44.755Z,88.00
2018-06-22T03:21:44.716Z,96.00
2018-06-22T03:22:44.683Z,100.00
2018-06-22T03:23:44.643Z,112.00
2018-06-22T03:24:44.610Z,116.00
2018-06-22T03:25:44.603Z,124.00
2018-06-22T03:26:44.537Z,132.00
2018-06-22T03:27:44.503Z,144.00
2018-06-22T03:28:44.467Z,152.00
2018-06-22T03:29:44.430Z,160.00
2018-06-22T03:30:44.394Z,168.00
2018-06-22T03:31:44.360Z,180.00
2018-06-22T03:32:44.321Z,188.00
2018-06-22T03:33:44.292Z,200.00
2018-06-22T03:34:44.252Z,208.00
2018-06-22T03:35:44.217Z,216.00
2018-06-22T03:36:44.180Z,228.00
2018-06-22T03:37:44.146Z,236.00
2018-06-22T03:38:44.108Z,248.00
2018-06-22T03:39:44.072Z,260.00
2018-06-22T03:40:44.038Z,272.00
2018-06-22T03:41:44.000Z,280.00
2018-06-22T03:42:43.986Z,288.00
2018-06-22T03:43:43.926Z,300.00
2018-06-22T03:44:43.892Z,304.00
2018-06-22T03:45:43.858Z,316.00
2018-06-22T03:46:43.827Z,328.00
2018-06-22T03:47:43.782Z,336.00
2018-06-22T03:48:43.749Z,344.00
2018-06-22T03:49:43.710Z,352.00
2018-06-22T03:50:43.724Z,364.00
2018-06-22T03:51:43.641Z,376.00
2018-06-22T03:52:43.606Z,388.00
2018-06-22T03:53:43.569Z,396.00
2018-06-22T03:54:43.532Z,408.00
2018-06-22T03:55:43.498Z,420.00
2018-06-22T03:56:43.524Z,436.00
2018-06-22T03:57:43.424Z,460.00
2018-06-22T03:58:43.385Z,484.00
2018-06-22T03:59:43.350Z,476.00
2018-06-22T04:00:43.320Z,488.00
2018-06-22T04:01:43.281Z,520.00
2018-06-22T04:02:43.246Z,584.00
2018-06-22T04:03:43.209Z,736.00
2018-06-22T04:04:43.173Z,840.00
2018-06-22T04:05:43.139Z,828.00
2018-06-22T04:06:43.102Z,888.00
2018-06-22T04:07:43.068Z,1024.00
2018-06-22T04:08:43.029Z,960.00
2018-06-22T04:09:43.013Z,1088.00
2018-06-22T04:10:42.961Z,1112.00
2018-06-22T04:11:42.923Z,1148.00
2018-06-22T04:12:42.888Z,1184.00
2018-06-22T04:13:42.853Z,1260.00
2018-06-22T04:14:42.819Z,1260.00
2018-06-22T04:15:42.778Z,1276.00
2018-06-22T04:16:42.758Z,1308.00
2018-06-22T04:17:42.711Z,1340.00
2018-06-22T04:18:42.674Z,1372.00
2018-06-22T04:19:42.667Z,1412.00
2018-06-22T04:20:42.623Z,1464.00
2018-06-22T04:21:42.568Z,1464.00
2018-06-22T04:22:42.542Z,1476.00
2018-06-22T04:23:42.496Z,1488.00
2018-06-22T04:24:42.462Z,1532.00
2018-06-22T04:25:42.429Z,1568.00
2018-06-22T04:26:42.389Z,1552.00
2018-06-22T04:27:42.357Z,1560.00
2018-06-22T04:28:42.319Z,1640.00
2018-06-22T04:29:42.284Z,1612.00
2018-06-22T04:30:42.251Z,1704.00
2018-06-22T04:31:42.243Z,1828.00
2018-06-22T04:32:42.179Z,1876.00
2018-06-22T04:33:42.145Z,1880.00
2018-06-22T04:34:42.109Z,1852.00
2018-06-22T04:35:42.068Z,1864.00
2018-06-22T04:36:42.041Z,1904.00
2018-06-22T04:37:42.012Z,1704.00
2018-06-22T04:38:42.033Z,1924.00
2018-06-22T04:39:41.947Z,1944.00
2018-06-22T04:40:41.896Z,2048.00
2018-06-22T04:41:41.869Z,2084.00
2018-06-22T04:42:41.830Z,2156.00
2018-06-22T04:43:41.796Z,2196.00
2018-06-22T04:44:41.759Z,2204.00
2018-06-22T04:45:41.724Z,2160.00
2018-06-22T04:46:41.688Z,2228.00
2018-06-22T04:47:41.694Z,2188.00
2018-06-22T04:48:41.618Z,2184.00
2018-06-22T04:49:41.585Z,1612.00
2018-06-22T04:50:41.550Z,1584.00
2018-06-22T04:51:41.518Z,2288.00
2018-06-22T04:52:41.480Z,2124.00
2018-06-22T04:53:41.448Z,2416.00
2018-06-22T04:54:41.411Z,2464.00
2018-06-22T04:55:41.391Z,2540.00
2018-06-22T04:56:41.340Z,2680.00
2018-06-22T04:57:41.299Z,2792.00
2018-06-22T04:58:41.945Z,1924.00
2018-06-22T04:59:41.236Z,1744.00
2018-06-22T05:00:41.217Z,1416.00
2018-06-22T05:01:41.164Z,1324.00
2018-06-22T05:02:41.127Z,1672.00
2018-06-22T05:03:41.106Z,1248.00
2018-06-22T05:04:41.064Z,1120.00
2018-06-22T05:05:41.027Z,1060.00
2018-06-22T05:06:41.012Z,1060.00
2018-06-22T05:07:40.958Z,1120.00
2018-06-22T05:08:40.923Z,1196.00
2018-06-22T05:09:40.890Z,1296.00
2018-06-22T05:10:40.888Z,1400.00
2018-06-22T05:11:40.819Z,1532.00
2018-06-22T05:12:40.784Z,1572.00
2018-06-22T05:13:40.752Z,1600.00
2018-06-22T05:14:40.719Z,1604.00
2018-06-22T05:15:40.742Z,1620.00
2018-06-22T05:16:40.645Z,1592.00
2018-06-22T05:17:40.612Z,1588.00
2018-06-22T05:18:40.607Z,1620.00
2018-06-22T05:19:40.540Z,1640.00
2018-06-22T05:20:40.506Z,1680.00
2018-06-22T05:21:40.474Z,1612.00
2018-06-22T05:22:40.458Z,1492.00
2018-06-22T05:23:40.405Z,1384.00
2018-06-22T05:24:40.369Z,1360.00
2018-06-22T05:25:40.332Z,1348.00
2018-06-22T05:26:40.300Z,1320.00
2018-06-22T05:27:40.264Z,1356.00
2018-06-22T05:28:40.242Z,1392.00
2018-06-22T05:29:40.194Z,1472.00
2018-06-22T05:30:40.165Z,1516.00
2018-06-22T05:31:40.126Z,1512.00
2018-06-22T05:32:40.091Z,1500.00
2018-06-22T05:33:40.058Z,1436.00
2018-06-22T05:34:40.025Z,1328.00
2018-06-22T05:35:39.985Z,1324.00
2018-06-22T05:36:39.953Z,1396.00
2018-06-22T05:37:39.919Z,1436.00
2018-06-22T05:38:39.886Z,1544.00
2018-06-22T05:39:39.846Z,1616.00
2018-06-22T05:40:39.816Z,1616.00
2018-06-22T05:41:39.782Z,1572.00
2018-06-22T05:42:39.748Z,1580.00
2018-06-22T05:43:39.714Z,1504.00
2018-06-22T05:44:39.678Z,1484.00
2018-06-22T05:45:39.649Z,1480.00
2018-06-22T05:46:39.611Z,1440.00
2018-06-22T05:47:39.580Z,1460.00
2018-06-22T05:48:39.541Z,1480.00
2018-06-22T05:49:39.503Z,1516.00
2018-06-22T05:50:39.507Z,1564.00
2018-06-22T05:51:39.439Z,1612.00
2018-06-22T05:52:39.406Z,1668.00
2018-06-22T05:53:39.391Z,1716.00
2018-06-22T05:54:39.333Z,1776.00
2018-06-22T05:55:39.299Z,1836.00
2018-06-22T05:56:39.274Z,1924.00
2018-06-22T05:57:39.250Z,2020.00
2018-06-22T05:58:39.218Z,2080.00
2018-06-22T05:59:39.163Z,2128.00
2018-06-22T06:00:39.136Z,2188.00
2018-06-22T06:01:39.099Z,2224.00
2018-06-22T06:02:39.064Z,2244.00
2018-06-22T06:03:39.109Z,2252.00
2018-06-22T06:04:38.998Z,2264.00
2018-06-22T06:05:38.961Z,2300.00
2018-06-22T06:06:38.935Z,2388.00
2018-06-22T06:07:38.915Z,2352.00
2018-06-22T06:08:38.864Z,2376.00
2018-06-22T06:09:38.823Z,2424.00
2018-06-22T06:10:38.795Z,2468.00
2018-06-22T06:11:38.761Z,2508.00
2018-06-22T06:12:38.758Z,2608.00
2018-06-22T06:13:38.694Z,2660.00
2018-06-22T06:14:38.654Z,2604.00
2018-06-22T06:15:38.621Z,2596.00
2018-06-22T06:16:38.590Z,2492.00
2018-06-22T06:17:38.559Z,2388.00
2018-06-22T06:18:38.523Z,2380.00
2018-06-22T06:19:38.489Z,2404.00
2018-06-22T06:20:38.486Z,2316.00
2018-06-22T06:21:38.423Z,2244.00
2018-06-22T06:22:38.391Z,2156.00
2018-06-22T06:23:38.357Z,2072.00
2018-06-22T06:24:38.318Z,2072.00
2018-06-22T06:25:38.289Z,2132.00
2018-06-22T06:26:38.260Z,2148.00
2018-06-22T06:27:38.221Z,2196.00
2018-06-22T06:28:38.191Z,2248.00
2018-06-22T06:29:38.149Z,2272.00
2018-06-22T06:30:38.121Z,2192.00
2018-06-22T06:31:38.092Z,2060.00
2018-06-22T06:32:38.055Z,2012.00
2018-06-22T06:33:38.021Z,2032.00
2018-06-22T06:34:37.993Z,2160.00
2018-06-22T06:35:37.972Z,2304.00
2018-06-22T06:36:37.924Z,2336.00
2018-06-22T06:37:37.892Z,2316.00
2018-06-22T06:38:37.858Z,2340.00
2018-06-22T06:39:37.821Z,2460.00
2018-06-22T06:40:37.819Z,2532.00
2018-06-22T06:41:37.757Z,2576.00
2018-06-22T06:42:37.718Z,2604.00
2018-06-22T06:43:37.688Z,2660.00
2018-06-22T06:44:37.660Z,2736.00
2018-06-22T06:45:37.624Z,2788.00
2018-06-22T06:46:37.590Z,2756.00
2018-06-22T06:47:37.561Z,2760.00
2018-06-22T06:48:37.522Z,2736.00
2018-06-22T06:49:37.593Z,2560.00
2018-06-22T06:50:37.465Z,2296.00
2018-06-22T06:51:37.423Z,2144.00
2018-06-22T06:52:37.389Z,2088.00
2018-06-22T06:53:37.402Z,2044.00
2018-06-22T06:54:37.328Z,2064.00
2018-06-22T06:55:37.295Z,2064.00
2018-06-22T06:56:37.258Z,2052.00
2018-06-22T06:57:37.228Z,1980.00
2018-06-22T06:58:37.192Z,1880.00
2018-06-22T06:59:37.165Z,1844.00
2018-06-22T07:00:37.124Z,1808.00
2018-06-22T07:01:37.096Z,1784.00
2018-06-22T07:02:37.161Z,1788.00
2018-06-22T07:03:37.028Z,1824.00
2018-06-22T07:04:36.994Z,1832.00
2018-06-22T07:05:36.960Z,1876.00
2018-06-22T07:06:36.929Z,1868.00
2018-06-22T07:07:36.893Z,1856.00
2018-06-22T07:08:36.864Z,1880.00
2018-06-22T07:09:36.827Z,2028.00
2018-06-22T07:12:08.867Z,2388.00
2018-06-22T07:13:08.804Z,2268.00
2018-06-22T07:14:08.814Z,2232.00
2018-06-22T07:15:09.356Z,2200.00
2018-06-22T07:16:08.705Z,2108.00
2018-06-22T07:17:08.726Z,2048.00
2018-06-22T07:18:08.642Z,1980.00
2018-06-22T07:19:08.606Z,1880.00
2018-06-22T07:20:08.570Z,1784.00
2018-06-22T07:21:08.538Z,1928.00
2018-06-22T07:22:08.507Z,2020.00
2018-06-22T07:23:08.473Z,2456.00
2018-06-22T07:24:08.444Z,2896.00
2018-06-22T07:25:08.406Z,3092.00
2018-06-22T07:26:08.373Z,3056.00
2018-06-22T07:27:08.342Z,3060.00
2018-06-22T07:28:08.310Z,3484.00
2018-06-22T07:29:08.272Z,3816.00
2018-06-22T07:30:08.241Z,4256.00
2018-06-22T07:31:08.207Z,4620.00
2018-06-22T07:32:08.172Z,4588.00
2018-06-22T07:33:08.157Z,4240.00
2018-06-22T07:34:08.110Z,3824.00
2018-06-22T07:35:08.077Z,3276.00
2018-06-22T07:36:08.047Z,2808.00
2018-06-22T07:37:08.013Z,2784.00
2018-06-22T07:38:07.975Z,3152.00
2018-06-22T07:39:07.945Z,3480.00
2018-06-22T07:40:07.910Z,3644.00
2018-06-22T07:41:07.880Z,3916.00
2018-06-22T07:42:07.862Z,3792.00
2018-06-22T07:43:07.814Z,3664.00
2018-06-22T07:44:07.781Z,3500.00
2018-06-22T07:45:07.746Z,3208.00
2018-06-22T07:46:07.717Z,3068.00
2018-06-22T07:47:07.687Z,2768.00
2018-06-22T07:48:07.662Z,2496.00
2018-06-22T07:49:07.620Z,2336.00
2018-06-22T07:50:07.586Z,2240.00
2018-06-22T07:51:07.554Z,2192.00
2018-06-22T07:52:07.523Z,2236.00
2018-06-22T07:53:07.490Z,2404.00
2018-06-22T07:54:07.457Z,2656.00
2018-06-22T07:55:07.429Z,2852.00
2018-06-22T07:56:07.415Z,3040.00
2018-06-22T07:57:07.436Z,3120.00
2018-06-22T07:58:07.365Z,2880.00
2018-06-22T07:59:07.331Z,2772.00
2018-06-22T08:00:07.332Z,2564.00
2018-06-22T08:01:07.231Z,2484.00
2018-06-22T08:02:07.195Z,2428.00
2018-06-22T08:03:07.165Z,2504.00
2018-06-22T08:04:07.128Z,2444.00
2018-06-22T08:05:07.098Z,2452.00
2018-06-22T08:06:07.066Z,2320.00
2018-06-22T08:07:07.037Z,2204.00
2018-06-22T08:08:07.004Z,2084.00
2018-06-22T08:09:06.962Z,1968.00
2018-06-22T08:10:06.933Z,1920.00
2018-06-22T08:11:06.901Z,1752.00
2018-06-22T08:12:06.894Z,1536.00
2018-06-22T08:13:06.834Z,1468.00
2018-06-22T08:14:06.801Z,1504.00
2018-06-22T08:15:06.769Z,1400.00
2018-06-22T08:16:06.737Z,1364.00
2018-06-22T08:17:06.703Z,1536.00
2018-06-22T08:18:06.669Z,1752.00
2018-06-22T08:19:06.636Z,1952.00
2018-06-22T08:20:06.607Z,2012.00
2018-06-22T08:21:06.572Z,2204.00
2018-06-22T08:22:06.537Z,2820.00
2018-06-22T08:23:06.526Z,3052.00
2018-06-22T08:24:06.473Z,3252.00
2018-06-22T08:25:06.440Z,3176.00
2018-06-22T08:26:06.407Z,2924.00
2018-06-22T08:27:06.372Z,3020.00
2018-06-22T08:28:06.336Z,3112.00
2018-06-22T08:29:06.330Z,3348.00
2018-06-22T08:30:06.274Z,3644.00
2018-06-22T08:31:06.242Z,4156.00
2018-06-22T08:32:06.210Z,4992.00
2018-06-22T08:33:06.179Z,5628.00
2018-06-22T08:34:06.173Z,5704.00
2018-06-22T08:35:06.111Z,5240.00
2018-06-22T08:36:06.079Z,5224.00
2018-06-22T08:37:06.046Z,5332.00
2018-06-22T08:38:06.038Z,5544.00
2018-06-22T08:39:05.984Z,5988.00
2018-06-22T08:40:05.949Z,5752.00
2018-06-22T08:41:05.927Z,5932.00
2018-06-22T08:42:05.892Z,5528.00
2018-06-22T08:43:05.854Z,5580.00
2018-06-22T08:44:05.821Z,5304.00
2018-06-22T08:45:05.795Z,5112.00
2018-06-22T08:46:05.754Z,5200.00
2018-06-22T08:47:05.727Z,5348.00
2018-06-22T08:48:05.713Z,5716.00
2018-06-22T08:49:05.667Z,5720.00
2018-06-22T08:50:05.628Z,5364.00
2018-06-22T08:51:05.601Z,4868.00
2018-06-22T08:52:05.568Z,4616.00
2018-06-22T08:53:05.539Z,5172.00
2018-06-22T08:54:05.506Z,5820.00
2018-06-22T08:55:05.479Z,6296.00
2018-06-22T08:56:05.443Z,6404.00
2018-06-22T08:57:05.411Z,6284.00
2018-06-22T08:58:05.376Z,6584.00
2018-06-22T08:59:05.351Z,7264.00
2018-06-22T09:00:05.318Z,7624.00
2018-06-22T09:01:05.285Z,7268.00
2018-06-22T09:02:05.250Z,7060.00
2018-06-22T09:03:05.218Z,6556.00
2018-06-22T09:04:05.188Z,7160.00
2018-06-22T09:05:05.159Z,7308.00
2018-06-22T09:06:05.128Z,6768.00
2018-06-22T09:07:05.096Z,7260.00
2018-06-22T09:08:05.106Z,9612.00
2018-06-22T09:09:05.035Z,10896.00
2018-06-22T09:10:05.002Z,7032.00
2018-06-22T09:11:04.975Z,7552.00
2018-06-22T09:12:04.941Z,8188.00
2018-06-22T09:13:04.911Z,6196.00
2018-06-22T09:14:04.878Z,6332.00
2018-06-22T09:15:04.870Z,9460.00
2018-06-22T09:16:04.819Z,6596.00
2018-06-22T09:17:04.785Z,6080.00
2018-06-22T09:18:04.776Z,6304.00
2018-06-22T09:19:04.726Z,7188.00
2018-06-22T09:20:04.714Z,15520.00
2018-06-22T09:21:04.666Z,6204.00
2018-06-22T09:22:04.638Z,7168.00
2018-06-22T09:23:04.619Z,7512.00
2018-06-22T09:24:04.586Z,9828.00
2018-06-22T09:25:04.543Z,7492.00
2018-06-22T09:26:04.514Z,7536.00
2018-06-22T09:27:04.484Z,6652.00
2018-06-22T09:28:04.446Z,7632.00
2018-06-22T09:29:04.419Z,16448.00
2018-06-22T09:30:04.391Z,18112.00
2018-06-22T09:31:04.378Z,12112.00
2018-06-22T09:32:04.331Z,7016.00
2018-06-22T09:33:04.301Z,6228.00
2018-06-22T09:34:04.273Z,6420.00
2018-06-22T09:35:04.244Z,6676.00
2018-06-22T09:36:04.207Z,6176.00
2018-06-22T09:37:04.179Z,5976.00
2018-06-22T09:38:04.153Z,5996.00
2018-06-22T09:39:04.120Z,5856.00
2018-06-22T09:40:04.122Z,6140.00
2018-06-22T09:41:04.063Z,6524.00
2018-06-22T09:42:04.033Z,6376.00
2018-06-22T09:43:04.004Z,6396.00
2018-06-22T09:44:03.975Z,5832.00
2018-06-22T09:45:04.004Z,5436.00
2018-06-22T09:46:03.912Z,5632.00
2018-06-22T09:47:03.882Z,6704.00
2018-06-22T09:48:03.850Z,7148.00
2018-06-22T09:49:03.831Z,12852.00
2018-06-22T09:50:03.791Z,9116.00
2018-06-22T09:51:03.786Z,8040.00
2018-06-22T09:52:03.728Z,10164.00
2018-06-22T09:53:03.711Z,13888.00
2018-06-22T09:54:03.671Z,8472.00
2018-06-22T09:55:03.694Z,6644.00
2018-06-22T09:56:03.620Z,6572.00
2018-06-22T09:57:03.583Z,7036.00
2018-06-22T09:58:03.549Z,6364.00
2018-06-22T09:59:03.519Z,5692.00
2018-06-22T10:00:03.500Z,5028.00
2018-06-22T10:01:03.459Z,4712.00
2018-06-22T10:02:03.436Z,5116.00
2018-06-22T10:03:03.405Z,6320.00
2018-06-22T10:04:03.376Z,6528.00
2018-06-22T10:05:03.346Z,5680.00
2018-06-22T10:06:03.312Z,4792.00
2018-06-22T10:07:03.285Z,4124.00
2018-06-22T10:08:03.252Z,4012.00
2018-06-22T10:09:03.232Z,4220.00
2018-06-22T10:10:03.207Z,4812.00
2018-06-22T10:11:03.161Z,5044.00
2018-06-22T10:12:03.133Z,4936.00
2018-06-22T10:13:03.101Z,4840.00
2018-06-22T10:14:03.067Z,5408.00
2018-06-22T10:15:03.040Z,5824.00
2018-06-22T10:16:03.008Z,6276.00
2018-06-22T10:17:02.978Z,5896.00
2018-06-22T10:18:02.959Z,5332.00
2018-06-22T10:19:02.938Z,5380.00
2018-06-22T10:20:02.885Z,5848.00
2018-06-22T10:21:02.851Z,6536.00
2018-06-22T10:22:02.824Z,7860.00
2018-06-22T10:23:02.794Z,7412.00
2018-06-22T10:24:02.774Z,7260.00
2018-06-22T10:25:02.736Z,7244.00
2018-06-22T10:26:02.695Z,6660.00
2018-06-22T10:27:02.678Z,5968.00
2018-06-22T10:28:02.637Z,5348.00
2018-06-22T10:29:02.623Z,5016.00
2018-06-22T10:30:02.579Z,5284.00
2018-06-22T10:31:02.548Z,6256.00
2018-06-22T10:32:02.517Z,8272.00
2018-06-22T10:33:02.485Z,9244.00
2018-06-22T10:34:02.524Z,11168.00
2018-06-22T10:35:02.424Z,8116.00
2018-06-22T10:36:02.395Z,8196.00
2018-06-22T10:37:02.374Z,7504.00
2018-06-22T10:38:02.333Z,7520.00
2018-06-22T10:39:02.310Z,8108.00
2018-06-22T10:40:02.272Z,7652.00
2018-06-22T10:41:02.242Z,8448.00
2018-06-22T10:42:02.217Z,10604.00
2018-06-22T10:43:02.183Z,8896.00
2018-06-22T10:44:02.152Z,11616.00
2018-06-22T10:45:02.121Z,10780.00
2018-06-22T10:46:02.124Z,9956.00
2018-06-22T10:47:02.063Z,8460.00
2018-06-22T10:48:02.049Z,8620.00
2018-06-22T10:49:02.011Z,8004.00
2018-06-22T10:50:01.981Z,8220.00
2018-06-22T10:51:01.961Z,16256.00
2018-06-22T10:52:01.914Z,17120.00
2018-06-22T10:53:01.878Z,15628.00
2018-06-22T10:54:01.872Z,14924.00
2018-06-22T10:55:01.828Z,14232.00
2018-06-22T10:56:01.800Z,13712.00
2018-06-22T10:57:01.767Z,13540.00
2018-06-22T10:58:01.761Z,13652.00
2018-06-22T10:59:01.715Z,13792.00
2018-06-22T11:00:01.750Z,13712.00
2018-06-22T11:01:01.660Z,14028.00
2018-06-22T11:02:01.629Z,14540.00
2018-06-22T11:03:01.604Z,14972.00
2018-06-22T11:04:01.583Z,6768.00
2018-06-22T11:05:02.415Z,8180.00
2018-06-22T11:06:01.524Z,6260.00
2018-06-22T11:07:01.499Z,7212.00
2018-06-22T11:08:01.471Z,5840.00
2018-06-22T11:09:01.461Z,7520.00
2018-06-22T11:10:01.424Z,10044.00
2018-06-22T11:11:01.392Z,5596.00
2018-06-22T11:12:01.379Z,5984.00
2018-06-22T11:13:01.350Z,7356.00
2018-06-22T11:14:01.378Z,9640.00
2018-06-22T11:15:01.305Z,10292.00
2018-06-22T11:16:01.256Z,4620.00
2018-06-22T11:17:01.302Z,4376.00
2018-06-22T11:18:01.208Z,4672.00
2018-06-22T11:19:01.172Z,5460.00
2018-06-22T11:20:01.143Z,7140.00
2018-06-22T11:21:01.111Z,8376.00
2018-06-22T11:22:01.084Z,7932.00
2018-06-22T11:23:01.054Z,6840.00
2018-06-22T11:24:01.026Z,5448.00
2018-06-22T11:25:00.998Z,4448.00
2018-06-22T11:26:00.986Z,3944.00
2018-06-22T11:27:00.939Z,4052.00
2018-06-22T11:28:00.910Z,4636.00
2018-06-22T11:29:00.879Z,6288.00
2018-06-22T11:30:00.849Z,6300.00
2018-06-22T11:31:00.822Z,8064.00
2018-06-22T11:32:00.792Z,15680.00
2018-06-22T11:33:00.763Z,11432.00
2018-06-22T11:34:00.732Z,8932.00
2018-06-22T11:35:00.739Z,8632.00
2018-06-22T11:36:00.690Z,10144.00
2018-06-22T11:37:00.645Z,7568.00
2018-06-22T11:38:01.431Z,6092.00
2018-06-22T11:39:00.585Z,4812.00
2018-06-22T11:40:00.558Z,3828.00
2018-06-22T11:41:00.526Z,3320.00
2018-06-22T11:42:00.500Z,3264.00
2018-06-22T11:43:00.471Z,3504.00
2018-06-22T11:44:00.439Z,4072.00
2018-06-22T11:45:00.410Z,5060.00
2018-06-22T11:46:00.381Z,6536.00
2018-06-22T11:47:00.349Z,6284.00
2018-06-22T11:48:00.323Z,6164.00
2018-06-22T11:49:00.309Z,10596.00
2018-06-22T11:50:00.260Z,15552.00
2018-06-22T11:51:00.288Z,15456.00
2018-06-22T11:52:00.200Z,6932.00
2018-06-22T11:53:00.173Z,5836.00
2018-06-22T11:54:00.142Z,5244.00
2018-06-22T11:55:00.117Z,5312.00
2018-06-22T11:56:00.085Z,9220.00
2018-06-22T11:57:00.095Z,15616.00
2018-06-22T11:58:00.028Z,13292.00
2018-06-22T11:59:00.029Z,8736.00
2018-06-22T11:59:59.969Z,12316.00
2018-06-22T12:00:59.938Z,13408.00
2018-06-22T12:01:59.912Z,8872.00
2018-06-22T12:02:59.880Z,8344.00
2018-06-22T12:03:59.855Z,7260.00
2018-06-22T12:04:59.831Z,5940.00
2018-06-22T12:05:59.799Z,5912.00
2018-06-22T12:06:59.771Z,14424.00
2018-06-22T12:07:59.752Z,14304.00
2018-06-22T12:08:59.731Z,10328.00
2018-06-22T12:09:59.694Z,12272.00
2018-06-22T12:10:59.663Z,12104.00
2018-06-22T12:11:59.634Z,10008.00
2018-06-22T12:12:59.604Z,8840.00
2018-06-22T12:13:59.583Z,6560.00
2018-06-22T12:14:59.559Z,6992.00
2018-06-22T12:15:59.526Z,7080.00
2018-06-22T12:16:59.501Z,7376.00
2018-06-22T12:17:59.477Z,6708.00
2018-06-22T12:18:59.497Z,7060.00
2018-06-22T12:19:59.413Z,7072.00
2018-06-22T12:20:59.421Z,7908.00
2018-06-22T12:21:59.359Z,10700.00
2018-06-22T12:22:59.329Z,10448.00
2018-06-22T12:23:59.336Z,7204.00
2018-06-22T12:24:59.307Z,8416.00